Time;durP1;ratioP1;P1;durP2;ratioP2;P2;SDS_P1;SDS_P2;PMS_P1;PMS_P2;Temp;Humidity;BMP_temperature;BMP_pressure;BME280_temperature;BME280_humidity;BME280_pressure;Samples;Min_cycle;Max_cycle;Signal;HPM_P1;HPM_P2
2023/09/07 00:01:08;;;;;;;8.75;5.93;;;;;;;22.17;96.36;101803.44;5072305;28;20485;-66
2023/09/07 00:03:56;;;;;;;10.57;6.20;;;;;;;22.22;96.00;101814.41;5069194;28;20040;-66
2023/09/07 00:06:44;;;;;;;10.90;6.55;;;;;;;22.20;95.88;101805.56;5070236;28;20499;-66
2023/09/07 00:09:32;;;;;;;11.73;6.60;;;;;;;22.15;96.12;101814.84;5071036;28;20556;-66
2023/09/07 00:12:20;;;;;;;12.63;6.60;;;;;;;22.08;96.53;101817.28;5069839;28;20439;-65
2023/09/07 00:15:10;;;;;;;11.35;6.60;;;;;;;22.00;97.05;101807.78;5067353;28;20107;-66
2023/09/07 00:17:58;;;;;;;10.15;7.03;;;;;;;21.96;97.36;101809.59;5071486;28;20401;-66
2023/09/07 00:20:46;;;;;;;10.65;6.97;;;;;;;21.90;97.59;101802.53;5071627;28;20048;-66
2023/09/07 00:23:34;;;;;;;14.15;6.95;;;;;;;21.85;98.11;101808.25;5068974;28;20127;-66
2023/09/07 00:26:22;;;;;;;10.40;6.60;;;;;;;21.84;98.25;101807.44;5036255;28;20049;-66
2023/09/07 00:29:10;;;;;;;8.63;5.80;;;;;;;21.82;98.39;101803.34;5052728;28;20045;-66
2023/09/07 00:31:58;;;;;;;11.90;7.40;;;;;;;21.81;98.37;101799.72;5054208;28;20131;-66
2023/09/07 00:34:46;;;;;;;11.63;6.43;;;;;;;21.80;98.39;101795.31;5052223;28;20051;-66
2023/09/07 00:37:34;;;;;;;16.83;7.28;;;;;;;21.74;98.73;101793.81;5021343;28;20527;-65
2023/09/07 00:40:23;;;;;;;12.35;6.50;;;;;;;21.68;99.00;101793.16;5062390;28;20519;-66
2023/09/07 00:43:11;;;;;;;11.70;7.13;;;;;;;21.65;99.05;101784.69;5041677;28;20045;-66
2023/09/07 00:45:59;;;;;;;9.25;6.50;;;;;;;21.61;99.28;101781.72;5052157;28;20045;-66
2023/09/07 00:48:47;;;;;;;11.93;6.93;;;;;;;21.58;99.22;101785.13;5027633;28;20053;-66
2023/09/07 00:51:36;;;;;;;15.48;7.05;;;;;;;21.53;99.42;101778.88;5044933;28;20045;-67
2023/09/07 00:54:24;;;;;;;11.70;6.28;;;;;;;21.48;99.36;101777.09;5060674;28;20571;-66
2023/09/07 00:57:12;;;;;;;10.00;6.97;;;;;;;21.44;99.58;101781.63;5058075;28;20049;-66
2023/09/07 01:00:00;;;;;;;11.55;7.03;;;;;;;21.42;99.58;101790.25;5058653;28;20048;-66
2023/09/07 01:02:49;;;;;;;13.73;7.00;;;;;;;21.42;99.24;101778.34;5059599;28;20052;-66
2023/09/07 01:06:03;;;;;;;15.30;6.75;;;;;;;21.41;99.39;101787.81;5039306;28;20069;-66
2023/09/07 01:08:53;;;;;;;17.65;7.80;;;;;;;21.39;99.34;101784.50;5037807;28;20045;-66
2023/09/07 01:11:41;;;;;;;12.45;7.18;;;;;;;21.36;99.38;101779.59;5046604;28;20044;-65
2023/09/07 01:14:29;;;;;;;13.05;6.00;;;;;;;21.33;99.66;101778.25;5059164;28;20044;-66
2023/09/07 01:17:17;;;;;;;11.32;6.95;;;;;;;21.33;99.62;101783.00;5059078;28;20056;-65
2023/09/07 01:20:09;;;;;;;13.35;7.47;;;;;;;21.25;99.99;101777.09;5060036;28;20415;-65
2023/09/07 01:22:58;;;;;;;13.40;7.18;;;;;;;21.20;100.00;101780.00;5058511;28;20040;-65
2023/09/07 01:25:46;;;;;;;13.02;6.85;;;;;;;21.18;100.00;101778.69;5053217;28;20041;-65
2023/09/07 01:28:35;;;;;;;20.00;8.20;;;;;;;21.16;100.00;101786.47;5044608;28;20041;-66
2023/09/07 01:31:23;;;;;;;12.32;7.53;;;;;;;21.13;100.00;101776.84;5053414;28;20103;-66
2023/09/07 01:34:11;;;;;;;11.90;7.13;;;;;;;21.13;100.00;101776.84;5053750;28;20102;-66
2023/09/07 01:36:59;;;;;;;13.73;6.53;;;;;;;21.14;100.00;101775.75;5052897;28;20045;-65
2023/09/07 01:39:48;;;;;;;14.25;7.22;;;;;;;21.14;100.00;101775.75;5047939;28;20501;-66
2023/09/07 01:42:37;;;;;;;11.52;7.18;;;;;;;21.13;100.00;101771.31;5055405;28;20040;-66
2023/09/07 01:45:25;;;;;;;9.75;6.63;;;;;;;21.09;100.00;101769.50;5073663;28;20048;-65
2023/09/07 01:48:15;;;;;;;11.95;8.07;;;;;;;21.01;100.00;101760.00;5058452;28;20131;-66
2023/09/07 01:51:03;;;;;;;13.93;7.22;;;;;;;20.96;100.00;101771.22;5072457;28;20121;-66
2023/09/07 01:53:53;;;;;;;11.75;7.18;;;;;;;20.88;100.00;101774.72;5038014;28;20072;-66
2023/09/07 01:56:41;;;;;;;12.32;7.00;;;;;;;20.89;100.00;101774.41;5040950;28;20490;-66
2023/09/07 01:59:29;;;;;;;12.77;7.78;;;;;;;20.91;100.00;101765.78;5030201;28;20041;-66
2023/09/07 02:02:17;;;;;;;14.93;7.45;;;;;;;20.93;100.00;101766.31;5058101;28;20040;-65
2023/09/07 02:05:06;;;;;;;12.30;7.63;;;;;;;20.92;100.00;101771.00;5058690;28;20531;-65
2023/09/07 02:07:54;;;;;;;12.90;8.00;;;;;;;20.91;100.00;101768.56;5054697;28;20481;-66
2023/09/07 02:10:42;;;;;;;15.02;7.93;;;;;;;20.87;100.00;101768.34;5073435;28;20412;-66
2023/09/07 02:13:30;;;;;;;14.55;7.32;;;;;;;20.83;100.00;101767.38;5044538;28;20066;-65
2023/09/07 02:16:18;;;;;;;13.90;8.43;;;;;;;20.82;100.00;101771.25;5057647;28;20045;-66
2023/09/07 02:19:06;;;;;;;14.60;8.23;;;;;;;20.80;100.00;101768.78;5062341;28;20060;-66
2023/09/07 02:21:54;;;;;;;13.30;7.10;;;;;;;20.79;100.00;101766.34;5071408;28;20044;-65
2023/09/07 02:24:43;;;;;;;10.85;7.07;;;;;;;20.78;100.00;101770.25;5052498;28;20053;-65
2023/09/07 02:27:35;;;;;;;10.73;6.95;;;;;;;20.81;100.00;101764.09;5039396;28;20049;-65
2023/09/07 02:30:23;;;;;;;15.43;8.18;;;;;;;20.83;100.00;101770.97;5053362;28;20084;-66
2023/09/07 02:33:11;;;;;;;11.02;6.88;;;;;;;20.81;100.00;101769.63;5043294;28;20048;-67
2023/09/07 02:35:59;;;;;;;13.60;8.18;;;;;;;20.78;100.00;101764.69;5058192;28;20044;-66
2023/09/07 02:38:47;;;;;;;13.80;8.18;;;;;;;20.73;100.00;101767.59;5047436;28;20072;-66
2023/09/07 02:41:36;;;;;;;13.23;7.85;;;;;;;20.69;100.00;101774.91;5038106;28;20045;-66
2023/09/07 02:44:24;;;;;;;15.80;7.93;;;;;;;20.65;100.00;101771.94;5024465;28;20562;-66
2023/09/07 02:47:12;;;;;;;12.23;7.68;;;;;;;20.62;100.00;101772.56;5039415;28;20060;-68
2023/09/07 02:50:00;;;;;;;13.02;7.60;;;;;;;20.60;100.00;101778.41;5057008;28;20044;-66
2023/09/07 02:52:49;;;;;;;11.00;7.18;;;;;;;20.60;100.00;101774.84;5057460;28;20056;-66
2023/09/07 02:55:40;;;;;;;15.63;8.02;;;;;;;20.59;100.00;101767.69;5056715;28;20492;-66
2023/09/07 02:58:28;;;;;;;12.05;7.90;;;;;;;20.56;100.00;101762.75;5047954;28;20523;-66
2023/09/07 03:01:20;;;;;;;15.20;8.30;;;;;;;20.46;100.00;101763.75;5057876;28;20087;-66
2023/09/07 03:04:09;;;;;;;21.75;9.05;;;;;;;20.39;100.00;101763.38;5057059;28;20044;-66
2023/09/07 03:07:00;;;;;;;14.35;7.72;;;;;;;20.37;100.00;101762.88;5056689;28;20157;-66
2023/09/07 03:09:48;;;;;;;18.35;8.55;;;;;;;20.37;100.00;101760.09;5040869;28;20059;-65
2023/09/07 03:12:36;;;;;;;12.60;8.32;;;;;;;20.37;100.00;101763.72;5051787;28;20049;-65
2023/09/07 03:15:24;;;;;;;16.48;8.30;;;;;;;20.35;100.00;101756.84;5038632;28;20057;-65
2023/09/07 03:18:12;;;;;;;16.63;8.10;;;;;;;20.33;100.00;101754.38;5047116;28;20135;-65
2023/09/07 03:21:04;;;;;;;13.45;7.70;;;;;;;20.34;100.00;101761.53;5041190;28;20088;-66
2023/09/07 03:23:53;;;;;;;13.07;7.93;;;;;;;20.31;100.00;101761.34;5057901;28;20496;-66
2023/09/07 03:26:41;;;;;;;12.77;7.50;;;;;;;20.24;100.00;101759.00;5056916;28;20524;-66
2023/09/07 03:29:30;;;;;;;14.65;8.52;;;;;;;20.20;100.00;101767.13;5049874;28;20049;-66
2023/09/07 03:32:18;;;;;;;12.18;8.10;;;;;;;20.18;100.00;101758.31;5043956;28;20048;-66
2023/09/07 03:35:09;;;;;;;12.20;7.43;;;;;;;20.12;100.00;101755.97;5070483;28;20041;-66
2023/09/07 03:37:57;;;;;;;13.55;7.90;;;;;;;20.08;100.00;101755.75;5057218;28;20051;-66
2023/09/07 03:40:45;;;;;;;16.08;8.30;;;;;;;20.09;100.00;101759.34;5062868;28;20059;-67
2023/09/07 03:43:33;;;;;;;13.60;7.50;;;;;;;20.09;100.00;101764.88;5038741;28;20063;-67
2023/09/07 03:46:22;;;;;;;13.52;8.20;;;;;;;20.16;100.00;101759.75;5059135;28;20049;-66
2023/09/07 03:49:10;;;;;;;12.27;6.80;;;;;;;20.19;100.00;101770.19;5056166;28;20510;-67
2023/09/07 03:51:58;;;;;;;15.70;7.88;;;;;;;20.18;100.00;101761.06;5038470;28;20055;-66
2023/09/07 03:54:46;;;;;;;13.35;8.00;;;;;;;20.15;100.00;101758.91;5036753;28;20087;-66
2023/09/07 03:57:34;;;;;;;13.18;8.02;;;;;;;20.10;100.00;101760.97;5051282;28;20492;-67
2023/09/07 04:00:23;;;;;;;14.48;7.45;;;;;;;20.11;100.00;101773.69;5058272;28;20450;-66
2023/09/07 04:03:11;;;;;;;15.13;7.80;;;;;;;20.08;100.00;101769.56;5041748;28;20079;-67
2023/09/07 04:06:00;;;;;;;17.02;7.88;;;;;;;20.06;100.00;101768.25;5069862;28;20531;-66
2023/09/07 04:08:48;;;;;;;16.20;8.18;;;;;;;20.05;100.00;101780.47;5056861;28;20121;-66
2023/09/07 04:11:36;;;;;;;13.15;7.50;;;;;;;20.03;100.00;101766.09;5046174;28;20092;-66
2023/09/07 04:14:24;;;;;;;14.88;8.73;;;;;;;20.02;100.00;101764.47;5037423;28;20071;-65
2023/09/07 04:17:12;;;;;;;15.77;7.68;;;;;;;19.96;100.00;101756.28;5040171;28;20080;-66
2023/09/07 04:20:01;;;;;;;15.68;7.70;;;;;;;19.94;100.00;101761.31;5038574;28;20041;-66
2023/09/07 04:22:49;;;;;;;12.48;7.15;;;;;;;19.94;100.00;101754.94;5041372;28;20489;-65
2023/09/07 04:25:39;;;;;;;14.77;8.02;;;;;;;19.91;100.00;101753.63;5050877;28;20048;-65
2023/09/07 04:28:27;;;;;;;17.40;8.40;;;;;;;19.86;100.00;101750.97;5059230;28;20040;-65
2023/09/07 04:31:16;;;;;;;12.82;6.90;;;;;;;19.83;100.00;101754.34;5056274;28;20052;-67
2023/09/07 04:34:05;;;;;;;12.25;7.90;;;;;;;19.78;100.00;101755.25;5056863;28;20373;-65
2023/09/07 04:36:53;;;;;;;15.07;8.63;;;;;;;19.76;100.00;101756.69;5055640;28;20049;-65
2023/09/07 04:39:41;;;;;;;13.05;7.72;;;;;;;19.70;100.00;101763.44;5042457;28;20129;-64
2023/09/07 04:42:29;;;;;;;12.85;8.40;;;;;;;19.67;100.00;101764.03;5049933;28;20044;-66
2023/09/07 04:45:17;;;;;;;13.63;7.65;;;;;;;19.65;100.00;101766.28;5053886;28;20051;-66
2023/09/07 04:48:05;;;;;;;16.98;8.30;;;;;;;19.64;100.00;101772.97;5070279;28;20396;-65
2023/09/07 04:51:05;;;;;;;15.27;8.30;;;;;;;19.62;100.00;101772.44;5042251;28;20055;-66
2023/09/07 04:53:54;;;;;;;14.23;7.63;;;;;;;19.59;100.00;101768.34;5049052;28;20045;-65
2023/09/07 04:56:47;;;;;;;21.02;8.60;;;;;;;19.57;100.00;101771.41;5057624;28;20067;-66
2023/09/07 04:59:35;;;;;;;14.00;7.45;;;;;;;19.57;100.00;101768.63;5071050;28;20051;-66
2023/09/07 05:02:23;;;;;;;16.20;8.50;;;;;;;19.52;100.00;101762.41;5055444;28;20048;-65
2023/09/07 05:05:11;;;;;;;16.02;8.35;;;;;;;19.47;100.00;101771.59;5068967;28;20514;-65
2023/09/07 05:08:00;;;;;;;14.25;7.40;;;;;;;19.45;100.00;101782.13;5069695;28;20652;-65
2023/09/07 05:10:48;;;;;;;16.45;8.25;;;;;;;19.43;100.00;101778.03;5055975;28;20131;-66
2023/09/07 05:13:37;;;;;;;19.17;8.65;;;;;;;19.42;100.00;101780.00;5054708;28;20182;-66
2023/09/07 05:16:26;;;;;;;16.92;9.23;;;;;;;19.42;100.00;101780.00;5051467;28;20053;-66
2023/09/07 05:19:15;;;;;;;19.83;8.18;;;;;;;19.43;100.00;101786.34;5055693;28;20061;-66
2023/09/07 05:22:04;;;;;;;21.27;9.27;;;;;;;19.40;100.00;101787.75;5065292;28;20040;-66
2023/09/07 05:24:51;;;;;;;24.25;9.23;;;;;;;19.37;100.00;101782.84;5041960;28;20044;-66
2023/09/07 05:27:40;;;;;;;18.40;8.88;;;;;;;19.35;100.00;101785.09;5047095;28;20051;-66
2023/09/07 05:30:28;;;;;;;24.33;8.85;;;;;;;19.39;100.00;101791.66;5041537;28;20041;-66
2023/09/07 05:33:17;;;;;;;16.23;7.82;;;;;;;19.41;100.00;101789.41;5057258;28;20043;-66
2023/09/07 05:36:06;;;;;;;15.52;7.80;;;;;;;19.43;100.00;101797.38;5027283;28;20037;-66
2023/09/07 05:38:54;;;;;;;20.60;9.05;;;;;;;19.43;100.00;101798.19;5028899;28;20037;-65
2023/09/07 05:41:42;;;;;;;21.60;10.00;;;;;;;19.42;100.00;101801.28;5058748;28;20497;-65
2023/09/07 05:44:30;;;;;;;15.80;8.18;;;;;;;19.44;100.00;101801.81;5073512;28;20105;-65
2023/09/07 05:47:18;;;;;;;16.63;9.07;;;;;;;19.45;100.00;101803.44;5060310;28;20040;-66
2023/09/07 05:50:07;;;;;;;16.58;8.27;;;;;;;19.43;100.00;101809.25;5073329;28;20055;-65
2023/09/07 05:52:55;;;;;;;16.40;8.63;;;;;;;19.45;100.00;101806.19;4332602;28;10000815;-66
2023/09/07 05:55:43;;;;;;;19.83;8.95;;;;;;;19.50;100.00;101806.09;5039867;28;20127;-66
2023/09/07 05:58:32;;;;;;;18.23;8.43;;;;;;;19.50;100.00;101809.69;5035761;28;20044;-65
2023/09/07 06:01:21;;;;;;;13.57;7.47;;;;;;;19.53;100.00;101811.84;5036017;28;20134;-66
2023/09/07 06:04:09;;;;;;;14.52;8.00;;;;;;;19.61;100.00;101810.34;5034769;28;20049;-66
2023/09/07 06:06:58;;;;;;;13.27;6.57;;;;;;;19.68;100.00;101809.97;5067286;28;20056;-65
2023/09/07 06:09:46;;;;;;;12.50;7.63;;;;;;;19.74;100.00;101808.72;5054591;28;20052;-65
2023/09/07 06:12:34;;;;;;;16.45;8.50;;;;;;;19.78;100.00;101816.09;5044514;28;20040;-64
2023/09/07 06:15:23;;;;;;;21.88;8.77;;;;;;;19.81;100.00;101820.19;5052906;28;20052;-64
2023/09/07 06:18:11;;;;;;;18.33;8.88;;;;;;;19.81;100.00;101816.63;5048522;28;20065;-64
2023/09/07 06:20:59;;;;;;;17.73;6.78;;;;;;;19.81;100.00;101831.25;5034314;28;20747;-64
2023/09/07 06:23:48;;;;;;;13.27;7.05;;;;;;;19.82;100.00;101827.38;5048525;28;20604;-64
2023/09/07 06:26:36;;;;;;;15.65;7.97;;;;;;;19.86;100.00;101827.59;5040601;28;20569;-63
2023/09/07 06:29:25;;;;;;;16.02;7.72;;;;;;;19.90;100.00;101832.19;5016008;28;20101;-64
2023/09/07 06:32:13;;;;;;;18.17;7.78;;;;;;;19.91;100.00;101828.28;5032927;28;20084;-63
2023/09/07 06:35:02;;;;;;;15.68;7.28;;;;;;;19.99;100.00;101835.09;5031240;28;20067;-65
2023/09/07 06:37:51;;;;;;;15.85;7.90;;;;;;;19.97;100.00;101827.09;5020538;28;20049;-65
2023/09/07 06:40:48;;;;;;;22.48;8.77;;;;;;;20.04;100.00;101834.16;5045501;28;20053;-65
2023/09/07 06:43:38;;;;;;;14.00;8.23;;;;;;;20.02;100.00;101831.69;5041068;28;20400;-63
2023/09/07 06:46:27;;;;;;;15.98;8.23;;;;;;;20.04;100.00;101834.97;5066428;28;20049;-64
2023/09/07 06:49:16;;;;;;;16.45;8.85;;;;;;;20.09;100.00;101845.13;5037730;28;20037;-62
2023/09/07 06:52:04;;;;;;;14.18;7.82;;;;;;;20.12;100.00;101842.53;5053255;28;20045;-64
2023/09/07 06:54:53;;;;;;;16.85;8.30;;;;;;;20.18;100.00;101840.50;5051072;28;20481;-64
2023/09/07 06:57:42;;;;;;;17.77;8.75;;;;;;;20.17;100.00;101839.66;5032188;28;20581;-64
2023/09/07 07:00:30;;;;;;;17.95;7.45;;;;;;;20.23;100.00;101845.94;5047352;28;20568;-63
2023/09/07 07:03:18;;;;;;;14.93;7.55;;;;;;;20.27;100.00;101841.41;5051107;28;20049;-64
2023/09/07 07:06:06;;;;;;;14.15;8.20;;;;;;;20.29;99.84;101841.91;5064801;28;20409;-63
2023/09/07 07:08:54;;;;;;;13.63;6.82;;;;;;;20.34;99.80;101841.81;5045262;28;20037;-63
2023/09/07 07:11:43;;;;;;;12.27;8.02;;;;;;;20.31;98.87;101842.44;5039819;28;20157;-64
2023/09/07 07:14:31;;;;;;;17.00;7.95;;;;;;;20.34;98.43;101843.75;5052095;28;20056;-64
2023/09/07 07:17:20;;;;;;;17.63;7.90;;;;;;;20.36;99.07;101847.84;5039714;28;20041;-63
2023/09/07 07:20:08;;;;;;;14.75;7.55;;;;;;;20.39;98.75;101847.22;5041771;28;20128;-64
2023/09/07 07:22:57;;;;;;;12.48;7.72;;;;;;;20.42;98.50;101852.16;5053879;28;20040;-64
2023/09/07 07:25:45;;;;;;;13.90;8.02;;;;;;;20.45;98.54;101844.38;5056986;28;20116;-64
2023/09/07 07:28:33;;;;;;;17.45;8.38;;;;;;;20.48;98.92;101850.09;5056880;28;20045;-64
2023/09/07 07:31:22;;;;;;;15.98;8.23;;;;;;;20.52;98.87;101848.34;5057385;28;20083;-65
2023/09/07 07:34:10;;;;;;;12.85;8.82;;;;;;;20.54;99.02;101848.88;5058670;28;20127;-63
2023/09/07 07:36:58;;;;;;;14.77;8.18;;;;;;;;;;5056820;28;20045;-64
2023/09/07 07:39:46;;;;;;;22.25;8.25;;;;;;;20.59;98.68;101851.56;5054689;28;20040;-62
2023/09/07 07:42:35;;;;;;;14.13;7.65;;;;;;;20.62;98.38;101850.13;5024878;28;20485;-63
2023/09/07 07:45:23;;;;;;;13.63;7.75;;;;;;;20.66;98.42;101850.28;5039043;28;20044;-63
2023/09/07 07:48:12;;;;;;;14.23;7.78;;;;;;;20.70;97.24;101852.13;5038936;28;20037;-63
2023/09/07 07:51:05;;;;;;;17.33;9.30;;;;;;;20.73;96.94;101845.97;5057188;28;20189;-63
2023/09/07 07:53:59;;;;;;;14.32;8.55;;;;;;;20.78;96.97;101843.09;5043215;28;20045;-63
2023/09/07 07:56:47;;;;;;;12.23;7.80;;;;;;;20.81;95.34;101836.13;5070092;28;20122;-63
2023/09/07 07:59:36;;;;;;;11.75;7.78;;;;;;;20.87;95.30;101853.44;5027361;28;20044;-63
2023/09/07 08:02:25;;;;;;;12.85;7.43;;;;;;;20.91;95.09;101846.13;5037229;28;20041;-64
2023/09/07 08:05:14;;;;;;;14.82;7.68;;;;;;;20.95;94.29;101849.91;5049631;28;20041;-63
2023/09/07 08:08:03;;;;;;;13.63;7.38;;;;;;;20.99;94.10;101842.59;5054113;28;20048;-63
2023/09/07 08:10:51;;;;;;;12.60;6.65;;;;;;;21.03;93.23;101844.44;5064830;28;20037;-63
2023/09/07 08:13:40;;;;;;;13.90;7.20;;;;;;;21.06;92.38;101843.00;5064768;28;20454;-64
2023/09/07 08:16:29;;;;;;;13.45;6.65;;;;;;;21.10;91.64;101837.66;5049737;28;20076;-64
2023/09/07 08:19:18;;;;;;;13.52;6.90;;;;;;;21.17;90.28;101838.03;5035390;28;20059;-64
2023/09/07 08:22:06;;;;;;;12.98;6.82;;;;;;;21.23;90.92;101832.03;5061915;28;20049;-62
2023/09/07 08:24:55;;;;;;;15.27;7.20;;;;;;;21.26;91.14;101836.97;5050256;28;20049;-63
2023/09/07 08:27:44;;;;;;;14.35;7.03;;;;;;;21.31;90.79;101838.78;5037750;28;20194;-64
2023/09/07 08:30:33;;;;;;;12.10;7.10;;;;;;;21.39;89.96;101828.88;5048567;28;20053;-63
2023/09/07 08:33:32;;;;;;;11.07;6.30;;;;;;;21.47;89.26;101825.34;5017819;28;20045;-63
2023/09/07 08:36:23;;;;;;;11.57;6.80;;;;;;;21.48;89.70;101818.69;5032237;28;20599;-62
2023/09/07 08:39:12;;;;;;;14.30;6.93;;;;;;;21.50;89.38;101810.84;5037148;28;20053;-64
2023/09/07 08:42:01;;;;;;;10.73;6.32;;;;;;;21.54;89.68;101811.84;5030644;28;20045;-62
2023/09/07 08:44:50;;;;;;;14.32;7.05;;;;;;;21.59;89.31;101811.72;5039396;28;20052;-62
2023/09/07 08:47:38;;;;;;;19.58;7.70;;;;;;;21.67;89.47;101807.34;5050721;28;20099;-63
2023/09/07 08:50:28;;;;;;;11.18;6.78;;;;;;;21.73;88.58;101810.81;5029639;28;20116;-61
2023/09/07 08:53:22;;;;;;;14.18;6.30;;;;;;;21.74;88.78;101804.09;5032889;28;20409;-65
2023/09/07 08:56:11;;;;;;;14.27;6.30;;;;;;;21.80;88.58;101805.63;5047092;28;20052;-66
2023/09/07 08:58:59;;;;;;;12.15;6.00;;;;;;;21.80;88.06;101800.88;5041731;28;20092;-65
2023/09/07 09:01:47;;;;;;;10.98;5.68;;;;;;;21.78;88.22;101810.66;5018957;28;20143;-64
2023/09/07 09:04:35;;;;;;;14.15;5.55;;;;;;;21.78;89.26;101802.34;5034554;28;20132;-64
2023/09/07 09:07:23;;;;;;;15.40;5.75;;;;;;;21.82;88.45;101806.94;5047005;28;20462;-64
2023/09/07 09:10:11;;;;;;;13.55;6.47;;;;;;;21.87;88.55;101798.47;5034118;28;20098;-63
2023/09/07 09:13:00;;;;;;;13.80;6.15;;;;;;;21.94;88.11;101806.31;5047980;28;20099;-63
2023/09/07 09:15:48;;;;;;;10.27;5.22;;;;;;;22.01;87.86;101801.13;5053493;28;20519;-63
2023/09/07 09:18:38;;;;;;;13.30;6.07;;;;;;;22.05;87.05;101802.09;5063596;28;20044;-61
2023/09/07 09:21:27;;;;;;;12.88;5.75;;;;;;;22.09;87.08;101803.09;5060583;28;20040;-63
2023/09/07 09:24:18;;;;;;;11.48;6.07;;;;;;;22.13;86.78;101795.75;5079641;28;20049;-62
2023/09/07 09:27:06;;;;;;;10.27;5.70;;;;;;;22.24;86.55;101792.72;5073356;28;20047;-63
2023/09/07 09:29:54;;;;;;;11.15;5.70;;;;;;;22.31;87.34;101791.09;5072572;28;20106;-63
2023/09/07 09:32:43;;;;;;;11.00;5.70;;;;;;;22.37;86.22;101788.97;5073638;28;20091;-64
2023/09/07 09:35:31;;;;;;;13.88;6.07;;;;;;;22.50;85.81;101789.97;5069171;28;20049;-62
2023/09/07 09:38:19;;;;;;;12.55;5.43;;;;;;;22.59;85.18;101781.66;5054791;28;20053;-63
2023/09/07 09:41:08;;;;;;;8.70;4.90;;;;;;;22.66;85.76;101776.41;5058592;28;20175;-64
2023/09/07 09:43:56;;;;;;;14.18;6.00;;;;;;;22.73;83.85;101777.56;5058327;28;20124;-63
2023/09/07 09:46:45;;;;;;;13.20;5.97;;;;;;;22.82;83.09;101776.72;5074564;28;20555;-63
2023/09/07 09:49:34;;;;;;;8.50;5.32;;;;;;;22.83;83.06;101778.38;5039621;28;20053;-63
2023/09/07 09:52:24;;;;;;;11.02;5.10;;;;;;;22.80;83.44;101771.50;5027686;28;20628;-63
2023/09/07 09:55:13;;;;;;;10.60;5.53;;;;;;;22.88;82.41;101772.66;5040191;28;20551;-62
2023/09/07 09:58:01;;;;;;;8.68;5.50;;;;;;;22.94;81.54;101772.13;5055705;28;20052;-63
2023/09/07 10:00:55;;;;;;;9.93;4.97;;;;;;;22.96;80.89;101775.41;5053931;28;20057;-63
2023/09/07 10:03:46;;;;;;;8.32;5.18;;;;;;;23.01;80.71;101771.66;5066156;28;20052;-63
2023/09/07 10:06:35;;;;;;;9.77;4.65;;;;;;;23.03;79.00;101763.81;5039970;28;20120;-63
2023/09/07 10:09:24;;;;;;;11.50;6.10;;;;;;;23.08;79.18;101762.81;5045191;28;20524;-60
2023/09/07 10:12:12;;;;;;;10.73;5.30;;;;;;;23.14;80.89;101764.28;5053789;28;20073;-62
2023/09/07 10:15:05;;;;;;;12.15;4.93;;;;;;;23.21;78.78;101756.25;5052166;28;20389;-63
2023/09/07 10:18:10;;;;;;;10.90;5.28;;;;;;;23.36;79.55;101752.94;5058751;28;20045;-62
2023/09/07 10:20:59;;;;;;;13.23;5.80;;;;;;;23.44;79.43;101750.47;5053258;28;20489;-62
2023/09/07 10:23:47;;;;;;;15.05;6.82;;;;;;;23.47;77.57;101749.78;5038924;28;20048;-63
2023/09/07 10:26:37;;;;;;;16.02;6.68;;;;;;;23.43;74.50;101748.81;5039066;28;20056;-61
2023/09/07 10:29:26;;;;;;;9.15;5.60;;;;;;;23.41;74.65;101759.47;5050862;28;20050;-62
2023/09/07 10:32:16;;;;;;;12.25;5.00;;;;;;;23.45;74.09;101765.97;5073575;28;20072;-62
2023/09/07 10:35:25;;;;;;;11.30;6.45;;;;;;;23.45;75.20;101763.19;5072666;28;20062;-63
2023/09/07 10:38:16;;;;;;;12.07;5.80;;;;;;;23.44;76.18;101756.03;5053416;28;20048;-62
2023/09/07 10:41:05;;;;;;;8.55;5.20;;;;;;;23.55;76.80;101757.28;5066252;28;20546;-61
2023/09/07 10:43:57;;;;;;;11.23;5.03;;;;;;;23.65;74.76;101756.09;4718955;28;9999955;-61
2023/09/07 10:46:45;;;;;;;14.57;6.75;;;;;;;23.75;74.27;101753.78;5069590;28;20040;-61
2023/09/07 10:49:33;;;;;;;12.60;5.05;;;;;;;23.88;72.96;101753.88;5068195;28;20594;-62
2023/09/07 10:52:21;;;;;;;20.65;12.23;;;;;;;23.91;71.30;101747.63;5040957;28;20045;-62
2023/09/07 10:55:11;;;;;;;11.10;5.63;;;;;;;23.89;71.79;101755.53;5069859;28;20053;-62
2023/09/07 10:58:05;;;;;;;9.13;4.65;;;;;;;23.88;73.44;101751.09;5068472;28;20063;-63
2023/09/07 11:00:54;;;;;;;13.93;6.88;;;;;;;23.96;73.73;101745.47;5053046;28;20085;-63
2023/09/07 11:03:42;;;;;;;14.57;8.88;;;;;;;23.99;73.34;101744.00;5064510;28;20437;-63
2023/09/07 11:06:30;;;;;;;18.70;9.57;;;;;;;24.01;72.11;101736.13;5053921;28;20052;-63
2023/09/07 11:09:20;;;;;;;12.25;6.35;;;;;;;23.98;71.93;101739.56;5046414;28;20085;-63
2023/09/07 11:12:12;;;;;;;12.43;5.60;;;;;;;24.15;69.72;101738.63;5050346;28;20040;-63
2023/09/07 11:15:00;;;;;;;11.43;5.00;;;;;;;24.29;69.02;101736.38;5064427;28;20063;-64
2023/09/07 11:17:48;;;;;;;13.65;5.18;;;;;;;24.32;69.05;101724.59;5075478;28;20052;-64
2023/09/07 11:20:41;;;;;;;9.15;4.43;;;;;;;24.28;69.16;101729.19;5049666;28;20044;-64
2023/09/07 11:23:37;;;;;;;9.68;4.70;;;;;;;24.21;69.18;101728.94;5052044;28;20053;-64
2023/09/07 11:26:26;;;;;;;11.15;5.32;;;;;;;24.15;69.18;101722.75;5073029;28;20056;-63
2023/09/07 11:29:15;;;;;;;17.38;8.25;;;;;;;24.20;69.65;101714.19;5068006;28;20121;-64
2023/09/07 11:32:10;;;;;;;18.33;6.80;;;;;;;24.23;69.39;101715.47;5069420;28;20412;-63
2023/09/07 11:34:58;;;;;;;12.00;7.30;;;;;;;24.27;72.32;101718.38;5066875;28;20052;-63
2023/09/07 11:37:52;;;;;;;10.82;5.88;;;;;;;24.37;72.42;101715.22;5067305;28;20056;-63
2023/09/07 11:40:44;;;;;;;9.32;6.13;;;;;;;24.37;71.84;101715.22;5066426;28;20071;-63
2023/09/07 11:43:33;;;;;;;11.18;5.65;;;;;;;24.44;73.25;101705.16;5046282;28;20045;-62
2023/09/07 11:46:22;;;;;;;10.75;5.05;;;;;;;24.56;73.05;101711.97;5048063;28;20518;-63
2023/09/07 11:49:10;;;;;;;13.82;6.05;;;;;;;24.64;71.14;101703.50;5046870;28;20508;-62
2023/09/07 11:51:58;;;;;;;12.18;5.50;;;;;;;24.69;70.52;101707.25;5048546;28;20699;-63
2023/09/07 11:54:46;;;;;;;11.55;5.28;;;;;;;24.74;70.41;101701.47;5051974;28;20056;-62
2023/09/07 11:57:34;;;;;;;11.90;5.25;;;;;;;24.77;70.45;101701.56;5051858;28;20041;-62
2023/09/07 12:00:23;;;;;;;14.48;5.57;;;;;;;24.79;69.47;101698.44;5052588;28;20445;-62
2023/09/07 12:03:12;;;;;;;10.45;5.60;;;;;;;24.80;68.16;101697.31;5052295;28;20047;-62
2023/09/07 12:06:00;;;;;;;14.60;5.30;;;;;;;24.78;66.53;101697.66;5051241;28;20527;-62
2023/09/07 12:09:04;;;;;;;14.20;5.63;;;;;;;24.77;67.21;101695.19;5058654;28;20048;-63
2023/09/07 12:11:52;;;;;;;14.77;8.32;;;;;;;24.70;68.38;101700.50;5057891;28;20045;-61
2023/09/07 12:14:40;;;;;;;12.48;6.28;;;;;;;24.70;68.50;101695.75;5071591;28;20056;-63
2023/09/07 12:17:28;;;;;;;12.80;6.30;;;;;;;24.71;69.23;101693.78;5072373;28;20060;-61
2023/09/07 12:20:17;;;;;;;10.35;5.90;;;;;;;24.74;68.87;101693.09;5070130;28;20048;-62
2023/09/07 12:23:05;;;;;;;9.68;4.70;;;;;;;24.78;65.03;101696.84;5069624;28;20121;-62
2023/09/07 12:25:53;;;;;;;10.45;4.80;;;;;;;24.84;66.34;101692.66;5071326;28;20075;-63
2023/09/07 12:28:42;;;;;;;9.65;4.25;;;;;;;25.04;65.04;101689.00;5063813;28;20045;-62
2023/09/07 12:31:31;;;;;;;10.10;5.13;;;;;;;25.08;62.96;101689.09;5056364;28;20060;-62
2023/09/07 12:34:19;;;;;;;9.60;4.57;;;;;;;25.12;63.19;101683.66;5042117;28;20551;-62
2023/09/07 12:37:07;;;;;;;11.30;5.00;;;;;;;25.12;63.79;101681.69;5055342;28;20116;-63
2023/09/07 12:39:55;;;;;;;12.18;5.95;;;;;;;25.08;64.58;101681.56;5058576;28;20102;-63
2023/09/07 12:42:45;;;;;;;9.45;5.13;;;;;;;25.11;65.84;101679.22;5074908;28;20049;-62
2023/09/07 12:45:33;;;;;;;12.48;4.80;;;;;;;25.18;64.72;101679.50;5059319;28;20058;-62
2023/09/07 12:48:21;;;;;;;7.00;4.50;;;;;;;25.20;62.75;101678.00;5064764;28;20053;-61
2023/09/07 12:51:09;;;;;;;9.90;5.72;;;;;;;25.19;62.31;101668.00;5040297;28;20044;-62
2023/09/07 12:53:57;;;;;;;9.73;5.78;;;;;;;25.16;62.71;101673.44;5055241;28;20048;-63